sensor_id;sensor_type;location;lat;lon;timestamp;temperature;humidity
28244;DHT22;15510;52.512;13.300;2023-11-21T00:00:06;9.30;99.90
28244;DHT22;15510;52.512;13.300;2023-11-21T00:02:38;9.30;99.90
28244;DHT22;15510;52.512;13.300;2023-11-21T00:05:08;9.20;99.90
28244;DHT22;15510;52.512;13.300;2023-11-21T00:07:36;9.10;99.90
28244;DHT22;15510;52.512;13.300;2023-11-21T00:10:05;9.00;99.90
28244;DHT22;15510;52.512;13.300;2023-11-21T00:12:32;8.90;99.90
28244;DHT22;15510;52.512;13.300;2023-11-21T00:14:59;8.80;99.90
28244;DHT22;15510;52.512;13.300;2023-11-21T00:17:30;8.80;99.90
28244;DHT22;15510;52.512;13.300;2023-11-21T00:19:56;8.70;99.90
28244;DHT22;15510;52.512;13.300;2023-11-21T00:22:24;8.60;99.90
28244;DHT22;15510;52.512;13.300;2023-11-21T00:24:53;8.50;99.90
28244;DHT22;15510;52.512;13.300;2023-11-21T00:27:19;8.50;99.90
28244;DHT22;15510;52.512;13.300;2023-11-21T00:29:48;8.40;99.90
28244;DHT22;15510;52.512;13.300;2023-11-21T00:32:14;8.40;99.90
28244;DHT22;15510;52.512;13.300;2023-11-21T00:34:40;8.40;99.90
28244;DHT22;15510;52.512;13.300;2023-11-21T00:37:09;8.30;99.90
28244;DHT22;15510;52.512;13.300;2023-11-21T00:39:38;8.30;99.90
28244;DHT22;15510;52.512;13.300;2023-11-21T00:42:04;8.20;99.90
28244;DHT22;15510;52.512;13.300;2023-11-21T00:44:39;8.00;99.90
28244;DHT22;15510;52.512;13.300;2023-11-21T00:47:05;8.00;99.90
28244;DHT22;15510;52.512;13.300;2023-11-21T00:49:31;8.00;99.90
28244;DHT22;15510;52.512;13.300;2023-11-21T00:52:00;8.00;99.90
28244;DHT22;15510;52.512;13.300;2023-11-21T00:54:29;7.90;99.90
28244;DHT22;15510;52.512;13.300;2023-11-21T00:56:55;7.90;99.90
28244;DHT22;15510;52.512;13.300;2023-11-21T00:59:25;8.00;99.90
28244;DHT22;15510;52.512;13.300;2023-11-21T01:01:54;8.10;99.90
28244;DHT22;15510;52.512;13.300;2023-11-21T01:04:20;8.20;99.90
28244;DHT22;15510;52.512;13.300;2023-11-21T01:06:53;8.30;99.90
28244;DHT22;15510;52.512;13.300;2023-11-21T01:09:19;8.30;99.90
28244;DHT22;15510;52.512;13.300;2023-11-21T01:11:45;8.30;99.90
28244;DHT22;15510;52.512;13.300;2023-11-21T01:14:19;8.30;99.90
28244;DHT22;15510;52.512;13.300;2023-11-21T01:16:53;8.20;99.90
28244;DHT22;15510;52.512;13.300;2023-11-21T01:19:19;8.20;99.90
28244;DHT22;15510;52.512;13.300;2023-11-21T01:21:47;8.10;99.90
28244;DHT22;15510;52.512;13.300;2023-11-21T01:24:19;8.10;99.90
28244;DHT22;15510;52.512;13.300;2023-11-21T01:26:45;8.10;99.90
28244;DHT22;15510;52.512;13.300;2023-11-21T01:29:12;8.10;99.90
28244;DHT22;15510;52.512;13.300;2023-11-21T01:31:38;8.10;99.90
28244;DHT22;15510;52.512;13.300;2023-11-21T01:34:08;8.00;99.90
28244;DHT22;15510;52.512;13.300;2023-11-21T01:36:36;7.90;99.90
28244;DHT22;15510;52.512;13.300;2023-11-21T01:39:02;7.90;99.90
28244;DHT22;15510;52.512;13.300;2023-11-21T01:41:34;8.00;99.90
28244;DHT22;15510;52.512;13.300;2023-11-21T01:44:01;8.00;99.90
28244;DHT22;15510;52.512;13.300;2023-11-21T01:46:33;8.00;99.90
28244;DHT22;15510;52.512;13.300;2023-11-21T01:49:03;7.90;99.90
28244;DHT22;15510;52.512;13.300;2023-11-21T01:51:29;7.90;99.90
28244;DHT22;15510;52.512;13.300;2023-11-21T01:53:56;7.90;99.90
28244;DHT22;15510;52.512;13.300;2023-11-21T01:56:23;7.90;99.90
28244;DHT22;15510;52.512;13.300;2023-11-21T01:58:52;7.80;99.90
28244;DHT22;15510;52.512;13.300;2023-11-21T02:01:18;7.80;99.90
28244;DHT22;15510;52.512;13.300;2023-11-21T02:03:44;7.70;99.90
28244;DHT22;15510;52.512;13.300;2023-11-21T02:06:10;7.80;99.90
28244;DHT22;15510;52.512;13.300;2023-11-21T02:08:36;7.80;99.90
28244;DHT22;15510;52.512;13.300;2023-11-21T02:11:14;7.80;99.90
28244;DHT22;15510;52.512;13.300;2023-11-21T02:13:40;7.80;99.90
28244;DHT22;15510;52.512;13.300;2023-11-21T02:16:10;7.80;99.90
28244;DHT22;15510;52.512;13.300;2023-11-21T02:18:39;7.70;99.90
28244;DHT22;15510;52.512;13.300;2023-11-21T02:21:05;7.70;99.90
28244;DHT22;15510;52.512;13.300;2023-11-21T02:23:31;7.70;99.90
28244;DHT22;15510;52.512;13.300;2023-11-21T02:25:57;7.70;99.90
28244;DHT22;15510;52.512;13.300;2023-11-21T02:28:23;7.70;99.90
28244;DHT22;15510;52.512;13.300;2023-11-21T02:30:52;7.60;99.90
28244;DHT22;15510;52.512;13.300;2023-11-21T02:33:22;7.60;99.90
28244;DHT22;15510;52.512;13.300;2023-11-21T02:35:51;7.60;99.90
28244;DHT22;15510;52.512;13.300;2023-11-21T02:38:23;7.40;99.90
28244;DHT22;15510;52.512;13.300;2023-11-21T02:40:49;7.40;99.90
28244;DHT22;15510;52.512;13.300;2023-11-21T02:43:15;7.40;99.90
28244;DHT22;15510;52.512;13.300;2023-11-21T02:45:43;7.40;99.90
28244;DHT22;15510;52.512;13.300;2023-11-21T02:48:12;7.40;99.90
28244;DHT22;15510;52.512;13.300;2023-11-21T02:50:38;7.50;99.90
28244;DHT22;15510;52.512;13.300;2023-11-21T02:53:04;7.50;99.90
28244;DHT22;15510;52.512;13.300;2023-11-21T02:55:33;7.50;99.90
28244;DHT22;15510;52.512;13.300;2023-11-21T02:58:04;7.60;99.90
28244;DHT22;15510;52.512;13.300;2023-11-21T03:00:37;7.60;99.90
28244;DHT22;15510;52.512;13.300;2023-11-21T03:03:10;7.50;99.90
28244;DHT22;15510;52.512;13.300;2023-11-21T03:05:36;7.50;99.90
28244;DHT22;15510;52.512;13.300;2023-11-21T03:08:03;7.50;99.90
28244;DHT22;15510;52.512;13.300;2023-11-21T03:10:29;7.50;99.90
28244;DHT22;15510;52.512;13.300;2023-11-21T03:12:55;7.60;99.90
28244;DHT22;15510;52.512;13.300;2023-11-21T03:15:21;7.60;99.90
28244;DHT22;15510;52.512;13.300;2023-11-21T03:17:46;7.70;99.90
28244;DHT22;15510;52.512;13.300;2023-11-21T03:20:17;7.60;99.90
28244;DHT22;15510;52.512;13.300;2023-11-21T03:22:43;7.50;99.90
28244;DHT22;15510;52.512;13.300;2023-11-21T03:25:10;7.50;99.90
28244;DHT22;15510;52.512;13.300;2023-11-21T03:27:36;7.40;99.90
28244;DHT22;15510;52.512;13.300;2023-11-21T03:30:04;7.40;99.90
28244;DHT22;15510;52.512;13.300;2023-11-21T03:32:33;7.30;99.90
28244;DHT22;15510;52.512;13.300;2023-11-21T03:34:59;7.30;99.90
28244;DHT22;15510;52.512;13.300;2023-11-21T03:37:25;7.40;99.90
28244;DHT22;15510;52.512;13.300;2023-11-21T03:40:00;7.40;99.90
28244;DHT22;15510;52.512;13.300;2023-11-21T03:42:29;7.50;99.90
28244;DHT22;15510;52.512;13.300;2023-11-21T03:44:55;7.40;99.90
28244;DHT22;15510;52.512;13.300;2023-11-21T03:47:21;7.40;99.90
28244;DHT22;15510;52.512;13.300;2023-11-21T03:49:47;7.40;99.90
28244;DHT22;15510;52.512;13.300;2023-11-21T03:52:16;7.40;99.90
28244;DHT22;15510;52.512;13.300;2023-11-21T03:54:42;7.30;99.90
28244;DHT22;15510;52.512;13.300;2023-11-21T03:57:09;7.30;99.90
28244;DHT22;15510;52.512;13.300;2023-11-21T03:59:36;7.30;99.90
28244;DHT22;15510;52.512;13.300;2023-11-21T04:02:02;7.40;99.90
28244;DHT22;15510;52.512;13.300;2023-11-21T04:04:27;7.30;99.90
28244;DHT22;15510;52.512;13.300;2023-11-21T04:06:56;7.30;99.90
28244;DHT22;15510;52.512;13.300;2023-11-21T04:09:22;7.30;99.90
28244;DHT22;15510;52.512;13.300;2023-11-21T04:11:51;7.30;99.90
28244;DHT22;15510;52.512;13.300;2023-11-21T04:14:18;7.40;99.90
28244;DHT22;15510;52.512;13.300;2023-11-21T04:16:45;7.30;99.90
28244;DHT22;15510;52.512;13.300;2023-11-21T04:19:11;7.20;99.90
28244;DHT22;15510;52.512;13.300;2023-11-21T04:21:41;7.30;99.90
28244;DHT22;15510;52.512;13.300;2023-11-21T04:24:07;7.30;99.90
28244;DHT22;15510;52.512;13.300;2023-11-21T04:26:36;7.30;99.90
28244;DHT22;15510;52.512;13.300;2023-11-21T04:29:02;7.30;99.90
28244;DHT22;15510;52.512;13.300;2023-11-21T04:31:28;7.30;99.90
28244;DHT22;15510;52.512;13.300;2023-11-21T04:33:53;7.30;99.90
28244;DHT22;15510;52.512;13.300;2023-11-21T04:36:19;7.30;99.90
28244;DHT22;15510;52.512;13.300;2023-11-21T04:38:45;7.20;99.90
28244;DHT22;15510;52.512;13.300;2023-11-21T04:41:11;7.30;99.90
28244;DHT22;15510;52.512;13.300;2023-11-21T04:43:37;7.30;99.90
28244;DHT22;15510;52.512;13.300;2023-11-21T04:46:03;7.30;99.90
28244;DHT22;15510;52.512;13.300;2023-11-21T04:48:31;7.20;99.90
28244;DHT22;15510;52.512;13.300;2023-11-21T04:50:59;7.10;99.90
28244;DHT22;15510;52.512;13.300;2023-11-21T04:53:25;7.20;99.90
28244;DHT22;15510;52.512;13.300;2023-11-21T04:55:56;7.20;99.90
28244;DHT22;15510;52.512;13.300;2023-11-21T04:58:22;7.20;99.90
28244;DHT22;15510;52.512;13.300;2023-11-21T05:00:48;7.20;99.90
28244;DHT22;15510;52.512;13.300;2023-11-21T05:03:15;7.20;99.90
28244;DHT22;15510;52.512;13.300;2023-11-21T05:05:41;7.20;99.90
28244;DHT22;15510;52.512;13.300;2023-11-21T05:08:07;7.20;99.90
28244;DHT22;15510;52.512;13.300;2023-11-21T05:10:36;7.10;99.90
28244;DHT22;15510;52.512;13.300;2023-11-21T05:13:05;7.10;99.90
28244;DHT22;15510;52.512;13.300;2023-11-21T05:15:35;7.10;99.90
28244;DHT22;15510;52.512;13.300;2023-11-21T05:18:01;7.20;99.90
28244;DHT22;15510;52.512;13.300;2023-11-21T05:20:28;7.10;99.90
28244;DHT22;15510;52.512;13.300;2023-11-21T05:22:56;7.10;99.90
28244;DHT22;15510;52.512;13.300;2023-11-21T05:25:22;7.10;99.90
28244;DHT22;15510;52.512;13.300;2023-11-21T05:27:48;7.10;99.90
28244;DHT22;15510;52.512;13.300;2023-11-21T05:30:14;7.00;99.90
28244;DHT22;15510;52.512;13.300;2023-11-21T05:32:41;6.90;99.90
28244;DHT22;15510;52.512;13.300;2023-11-21T05:35:12;6.90;99.90
28244;DHT22;15510;52.512;13.300;2023-11-21T05:37:42;6.90;99.90
28244;DHT22;15510;52.512;13.300;2023-11-21T05:40:08;6.80;99.90
28244;DHT22;15510;52.512;13.300;2023-11-21T05:42:36;6.80;99.90
28244;DHT22;15510;52.512;13.300;2023-11-21T05:45:07;6.80;99.90
28244;DHT22;15510;52.512;13.300;2023-11-21T05:47:38;6.70;99.90
28244;DHT22;15510;52.512;13.300;2023-11-21T05:50:13;6.80;99.90
28244;DHT22;15510;52.512;13.300;2023-11-21T05:52:46;6.80;99.90
28244;DHT22;15510;52.512;13.300;2023-11-21T05:55:16;6.80;99.90
28244;DHT22;15510;52.512;13.300;2023-11-21T05:57:52;6.80;99.90
28244;DHT22;15510;52.512;13.300;2023-11-21T06:00:21;6.70;99.90
28244;DHT22;15510;52.512;13.300;2023-11-21T06:02:55;6.70;99.90
28244;DHT22;15510;52.512;13.300;2023-11-21T06:05:24;6.70;99.90
28244;DHT22;15510;52.512;13.300;2023-11-21T06:07:55;6.70;99.90
28244;DHT22;15510;52.512;13.300;2023-11-21T06:10:41;6.70;99.90
28244;DHT22;15510;52.512;13.300;2023-11-21T06:13:07;6.80;99.90
28244;DHT22;15510;52.512;13.300;2023-11-21T06:15:35;6.70;99.90
28244;DHT22;15510;52.512;13.300;2023-11-21T06:18:01;6.70;99.90
28244;DHT22;15510;52.512;13.300;2023-11-21T06:20:27;6.70;99.90
28244;DHT22;15510;52.512;13.300;2023-11-21T06:22:53;6.60;99.90
28244;DHT22;15510;52.512;13.300;2023-11-21T06:25:20;6.70;99.90
28244;DHT22;15510;52.512;13.300;2023-11-21T06:27:49;6.70;99.90
28244;DHT22;15510;52.512;13.300;2023-11-21T06:30:15;6.70;99.90
28244;DHT22;15510;52.512;13.300;2023-11-21T06:32:42;6.70;99.90
28244;DHT22;15510;52.512;13.300;2023-11-21T06:35:11;6.70;99.90
28244;DHT22;15510;52.512;13.300;2023-11-21T06:37:47;6.70;99.90
28244;DHT22;15510;52.512;13.300;2023-11-21T06:40:21;6.60;99.90
28244;DHT22;15510;52.512;13.300;2023-11-21T06:42:47;6.60;99.90
28244;DHT22;15510;52.512;13.300;2023-11-21T06:45:13;6.70;99.90
28244;DHT22;15510;52.512;13.300;2023-11-21T06:47:43;6.70;99.90
28244;DHT22;15510;52.512;13.300;2023-11-21T06:50:09;6.70;99.90
28244;DHT22;15510;52.512;13.300;2023-11-21T06:52:35;6.70;99.90
28244;DHT22;15510;52.512;13.300;2023-11-21T06:55:04;6.80;99.90
28244;DHT22;15510;52.512;13.300;2023-11-21T06:57:38;6.70;99.90
28244;DHT22;15510;52.512;13.300;2023-11-21T07:00:05;6.70;99.90
28244;DHT22;15510;52.512;13.300;2023-11-21T07:02:31;6.70;99.90
28244;DHT22;15510;52.512;13.300;2023-11-21T07:04:57;6.60;99.90
28244;DHT22;15510;52.512;13.300;2023-11-21T07:07:23;6.60;99.90
28244;DHT22;15510;52.512;13.300;2023-11-21T07:09:49;6.60;99.90
28244;DHT22;15510;52.512;13.300;2023-11-21T07:12:15;6.60;99.90
28244;DHT22;15510;52.512;13.300;2023-11-21T07:14:41;6.60;99.90
28244;DHT22;15510;52.512;13.300;2023-11-21T07:17:12;6.60;99.90
28244;DHT22;15510;52.512;13.300;2023-11-21T07:19:38;6.60;99.90
28244;DHT22;15510;52.512;13.300;2023-11-21T07:22:04;6.60;99.90
28244;DHT22;15510;52.512;13.300;2023-11-21T07:24:32;6.60;99.90
28244;DHT22;15510;52.512;13.300;2023-11-21T07:27:00;6.60;99.90
28244;DHT22;15510;52.512;13.300;2023-11-21T07:29:26;6.70;99.90
28244;DHT22;15510;52.512;13.300;2023-11-21T07:31:53;6.70;99.90
28244;DHT22;15510;52.512;13.300;2023-11-21T07:34:20;6.70;99.90
28244;DHT22;15510;52.512;13.300;2023-11-21T07:36:46;6.70;99.90
28244;DHT22;15510;52.512;13.300;2023-11-21T07:39:13;6.70;99.90
28244;DHT22;15510;52.512;13.300;2023-11-21T07:41:41;6.70;99.90
28244;DHT22;15510;52.512;13.300;2023-11-21T07:44:14;6.70;99.90
28244;DHT22;15510;52.512;13.300;2023-11-21T07:46:40;6.70;99.90
28244;DHT22;15510;52.512;13.300;2023-11-21T07:49:06;6.70;99.90
28244;DHT22;15510;52.512;13.300;2023-11-21T07:51:31;6.70;99.90
28244;DHT22;15510;52.512;13.300;2023-11-21T07:53:57;6.80;99.90
28244;DHT22;15510;52.512;13.300;2023-11-21T07:56:23;6.80;99.90
28244;DHT22;15510;52.512;13.300;2023-11-21T07:58:49;6.70;99.90
28244;DHT22;15510;52.512;13.300;2023-11-21T08:01:15;6.70;99.90
28244;DHT22;15510;52.512;13.300;2023-11-21T08:03:41;6.70;99.90
28244;DHT22;15510;52.512;13.300;2023-11-21T08:06:07;6.70;99.90
28244;DHT22;15510;52.512;13.300;2023-11-21T08:08:33;6.80;99.90
28244;DHT22;15510;52.512;13.300;2023-11-21T08:10:59;6.80;99.90
28244;DHT22;15510;52.512;13.300;2023-11-21T08:13:27;6.80;99.90
28244;DHT22;15510;52.512;13.300;2023-11-21T08:15:58;6.80;99.90
28244;DHT22;15510;52.512;13.300;2023-11-21T08:18:30;6.90;99.90
28244;DHT22;15510;52.512;13.300;2023-11-21T08:20:57;6.90;99.90
28244;DHT22;15510;52.512;13.300;2023-11-21T08:23:23;6.80;99.90
28244;DHT22;15510;52.512;13.300;2023-11-21T08:25:53;6.80;99.90
28244;DHT22;15510;52.512;13.300;2023-11-21T08:28:20;6.80;99.90
28244;DHT22;15510;52.512;13.300;2023-11-21T08:30:47;6.90;99.90
28244;DHT22;15510;52.512;13.300;2023-11-21T08:33:14;6.80;99.90
28244;DHT22;15510;52.512;13.300;2023-11-21T08:35:39;6.80;99.90
28244;DHT22;15510;52.512;13.300;2023-11-21T08:38:05;7.00;99.90
28244;DHT22;15510;52.512;13.300;2023-11-21T08:40:40;7.00;99.90
28244;DHT22;15510;52.512;13.300;2023-11-21T08:43:09;6.80;99.90
28244;DHT22;15510;52.512;13.300;2023-11-21T08:45:37;6.80;99.90
28244;DHT22;15510;52.512;13.300;2023-11-21T08:48:03;6.80;99.90
28244;DHT22;15510;52.512;13.300;2023-11-21T08:50:29;6.70;99.90
28244;DHT22;15510;52.512;13.300;2023-11-21T08:52:55;6.60;99.90
28244;DHT22;15510;52.512;13.300;2023-11-21T08:55:21;6.60;99.90
28244;DHT22;15510;52.512;13.300;2023-11-21T08:57:47;6.50;99.90
28244;DHT22;15510;52.512;13.300;2023-11-21T09:00:14;6.50;99.90
28244;DHT22;15510;52.512;13.300;2023-11-21T09:02:43;6.50;99.90
28244;DHT22;15510;52.512;13.300;2023-11-21T09:05:13;6.50;99.90
28244;DHT22;15510;52.512;13.300;2023-11-21T09:07:42;6.60;99.90
28244;DHT22;15510;52.512;13.300;2023-11-21T09:10:08;6.60;99.90
28244;DHT22;15510;52.512;13.300;2023-11-21T09:12:35;6.60;99.90
28244;DHT22;15510;52.512;13.300;2023-11-21T09:15:03;6.60;99.90
28244;DHT22;15510;52.512;13.300;2023-11-21T09:17:30;6.70;99.90
28244;DHT22;15510;52.512;13.300;2023-11-21T09:19:56;6.70;99.90
28244;DHT22;15510;52.512;13.300;2023-11-21T09:22:22;6.70;99.90
28244;DHT22;15510;52.512;13.300;2023-11-21T09:24:51;6.60;99.90
28244;DHT22;15510;52.512;13.300;2023-11-21T09:27:17;6.60;99.90
28244;DHT22;15510;52.512;13.300;2023-11-21T09:29:43;6.60;99.90
28244;DHT22;15510;52.512;13.300;2023-11-21T09:32:09;6.60;99.90
28244;DHT22;15510;52.512;13.300;2023-11-21T09:34:39;6.60;99.90
28244;DHT22;15510;52.512;13.300;2023-11-21T09:37:05;6.70;99.90
28244;DHT22;15510;52.512;13.300;2023-11-21T09:39:32;6.80;99.90
28244;DHT22;15510;52.512;13.300;2023-11-21T09:42:08;6.80;99.90
28244;DHT22;15510;52.512;13.300;2023-11-21T09:45:15;6.80;99.90
28244;DHT22;15510;52.512;13.300;2023-11-21T09:47:43;6.80;99.90
28244;DHT22;15510;52.512;13.300;2023-11-21T09:50:09;6.70;99.90
28244;DHT22;15510;52.512;13.300;2023-11-21T09:52:49;6.70;99.90
28244;DHT22;15510;52.512;13.300;2023-11-21T09:55:18;6.60;99.90
28244;DHT22;15510;52.512;13.300;2023-11-21T09:57:47;6.60;99.90
28244;DHT22;15510;52.512;13.300;2023-11-21T10:00:15;6.70;99.90
28244;DHT22;15510;52.512;13.300;2023-11-21T10:02:43;6.70;99.90
28244;DHT22;15510;52.512;13.300;2023-11-21T10:05:10;6.70;99.90
28244;DHT22;15510;52.512;13.300;2023-11-21T10:07:39;6.60;99.90
28244;DHT22;15510;52.512;13.300;2023-11-21T10:10:10;6.60;99.90
28244;DHT22;15510;52.512;13.300;2023-11-21T10:12:36;6.60;99.90
28244;DHT22;15510;52.512;13.300;2023-11-21T10:15:14;6.60;99.90
28244;DHT22;15510;52.512;13.300;2023-11-21T10:17:43;6.60;99.90
28244;DHT22;15510;52.512;13.300;2023-11-21T10:20:14;6.50;99.90
28244;DHT22;15510;52.512;13.300;2023-11-21T10:22:46;6.60;99.90
28244;DHT22;15510;52.512;13.300;2023-11-21T10:25:12;6.60;99.90
28244;DHT22;15510;52.512;13.300;2023-11-21T10:27:46;6.60;99.90
28244;DHT22;15510;52.512;13.300;2023-11-21T10:30:42;6.60;99.90
28244;DHT22;15510;52.512;13.300;2023-11-21T10:33:08;6.50;99.90
28244;DHT22;15510;52.512;13.300;2023-11-21T10:35:44;6.60;99.90
28244;DHT22;15510;52.512;13.300;2023-11-21T10:38:17;6.60;99.90
28244;DHT22;15510;52.512;13.300;2023-11-21T10:40:54;6.50;99.90
28244;DHT22;15510;52.512;13.300;2023-11-21T10:43:29;6.50;99.90
28244;DHT22;15510;52.512;13.300;2023-11-21T10:45:58;6.40;99.90
28244;DHT22;15510;52.512;13.300;2023-11-21T10:48:28;6.40;99.90
28244;DHT22;15510;52.512;13.300;2023-11-21T10:50:56;6.40;99.90
28244;DHT22;15510;52.512;13.300;2023-11-21T10:53:23;6.30;99.90
28244;DHT22;15510;52.512;13.300;2023-11-21T10:55:49;6.30;99.90
28244;DHT22;15510;52.512;13.300;2023-11-21T10:58:18;6.30;99.90
28244;DHT22;15510;52.512;13.300;2023-11-21T11:00:44;6.30;99.90
28244;DHT22;15510;52.512;13.300;2023-11-21T11:03:13;6.20;99.90
28244;DHT22;15510;52.512;13.300;2023-11-21T11:05:43;6.20;99.90
28244;DHT22;15510;52.512;13.300;2023-11-21T11:08:16;6.20;99.90
28244;DHT22;15510;52.512;13.300;2023-11-21T11:10:52;6.30;99.90
28244;DHT22;15510;52.512;13.300;2023-11-21T11:13:18;6.30;99.90
28244;DHT22;15510;52.512;13.300;2023-11-21T11:15:47;6.20;99.90
28244;DHT22;15510;52.512;13.300;2023-11-21T11:18:14;6.10;99.90
28244;DHT22;15510;52.512;13.300;2023-11-21T11:20:43;6.10;99.90
28244;DHT22;15510;52.512;13.300;2023-11-21T11:31:33;6.00;99.90
28244;DHT22;15510;52.512;13.300;2023-11-21T11:34:26;6.00;99.90
28244;DHT22;15510;52.512;13.300;2023-11-21T11:37:01;6.10;99.90
28244;DHT22;15510;52.512;13.300;2023-11-21T11:42:07;6.10;99.90
28244;DHT22;15510;52.512;13.300;2023-11-21T11:47:27;6.00;99.90
28244;DHT22;15510;52.512;13.300;2023-11-21T11:50:08;6.10;99.90
28244;DHT22;15510;52.512;13.300;2023-11-21T11:52:52;6.20;99.90
28244;DHT22;15510;52.512;13.300;2023-11-21T11:55:21;6.20;99.90
28244;DHT22;15510;52.512;13.300;2023-11-21T11:57:49;6.10;99.90
28244;DHT22;15510;52.512;13.300;2023-11-21T12:00:23;6.20;99.90
28244;DHT22;15510;52.512;13.300;2023-11-21T12:03:04;6.20;99.90
28244;DHT22;15510;52.512;13.300;2023-11-21T12:05:35;6.10;99.90
28244;DHT22;15510;52.512;13.300;2023-11-21T12:08:05;5.90;99.90
28244;DHT22;15510;52.512;13.300;2023-11-21T12:10:36;5.90;99.90
28244;DHT22;15510;52.512;13.300;2023-11-21T12:13:18;6.00;99.90
28244;DHT22;15510;52.512;13.300;2023-11-21T12:15:45;6.00;99.90
28244;DHT22;15510;52.512;13.300;2023-11-21T12:18:13;6.10;99.90
28244;DHT22;15510;52.512;13.300;2023-11-21T12:20:39;6.10;99.90
28244;DHT22;15510;52.512;13.300;2023-11-21T12:23:07;6.00;99.90
28244;DHT22;15510;52.512;13.300;2023-11-21T12:25:34;6.00;99.90
28244;DHT22;15510;52.512;13.300;2023-11-21T12:28:02;6.00;99.90
28244;DHT22;15510;52.512;13.300;2023-11-21T12:30:30;6.00;99.90
28244;DHT22;15510;52.512;13.300;2023-11-21T12:32:58;6.00;99.90
28244;DHT22;15510;52.512;13.300;2023-11-21T12:35:31;5.90;99.90
28244;DHT22;15510;52.512;13.300;2023-11-21T12:38:00;5.90;99.90
28244;DHT22;15510;52.512;13.300;2023-11-21T12:40:28;5.90;99.90
28244;DHT22;15510;52.512;13.300;2023-11-21T12:42:56;5.80;99.90
28244;DHT22;15510;52.512;13.300;2023-11-21T12:45:24;5.80;99.90
28244;DHT22;15510;52.512;13.300;2023-11-21T12:48:06;5.80;99.90
28244;DHT22;15510;52.512;13.300;2023-11-21T12:50:39;5.90;99.90
28244;DHT22;15510;52.512;13.300;2023-11-21T12:53:07;5.90;99.90
28244;DHT22;15510;52.512;13.300;2023-11-21T12:55:39;5.90;99.90
28244;DHT22;15510;52.512;13.300;2023-11-21T12:58:07;6.10;99.90
28244;DHT22;15510;52.512;13.300;2023-11-21T13:00:39;6.10;99.90
28244;DHT22;15510;52.512;13.300;2023-11-21T13:03:08;6.00;99.90
28244;DHT22;15510;52.512;13.300;2023-11-21T13:05:37;6.10;99.90
28244;DHT22;15510;52.512;13.300;2023-11-21T13:08:11;6.10;99.90
28244;DHT22;15510;52.512;13.300;2023-11-21T13:10:40;6.00;99.90
28244;DHT22;15510;52.512;13.300;2023-11-21T13:13:15;5.90;99.90
28244;DHT22;15510;52.512;13.300;2023-11-21T13:15:53;5.90;99.90
28244;DHT22;15510;52.512;13.300;2023-11-21T13:18:25;5.90;99.90
28244;DHT22;15510;52.512;13.300;2023-11-21T13:20:57;5.90;99.90
28244;DHT22;15510;52.512;13.300;2023-11-21T13:23:23;5.90;99.90
28244;DHT22;15510;52.512;13.300;2023-11-21T13:25:50;5.80;99.90
28244;DHT22;15510;52.512;13.300;2023-11-21T13:28:22;5.80;99.90
28244;DHT22;15510;52.512;13.300;2023-11-21T13:30:52;5.70;99.90
28244;DHT22;15510;52.512;13.300;2023-11-21T13:33:18;5.70;99.90
28244;DHT22;15510;52.512;13.300;2023-11-21T13:35:48;5.60;99.90
28244;DHT22;15510;52.512;13.300;2023-11-21T13:38:18;5.60;99.90
28244;DHT22;15510;52.512;13.300;2023-11-21T13:40:52;5.60;99.90
28244;DHT22;15510;52.512;13.300;2023-11-21T13:43:24;5.60;99.90
28244;DHT22;15510;52.512;13.300;2023-11-21T13:45:53;5.60;99.90
28244;DHT22;15510;52.512;13.300;2023-11-21T13:48:33;5.60;99.90
28244;DHT22;15510;52.512;13.300;2023-11-21T13:51:14;5.60;99.90
28244;DHT22;15510;52.512;13.300;2023-11-21T13:53:47;5.70;99.90
28244;DHT22;15510;52.512;13.300;2023-11-21T13:56:18;5.60;99.90
28244;DHT22;15510;52.512;13.300;2023-11-21T13:58:51;5.60;99.90
28244;DHT22;15510;52.512;13.300;2023-11-21T14:01:18;5.50;99.90
28244;DHT22;15510;52.512;13.300;2023-11-21T14:03:52;5.40;99.90
28244;DHT22;15510;52.512;13.300;2023-11-21T14:06:27;5.50;99.90
28244;DHT22;15510;52.512;13.300;2023-11-21T14:09:00;5.50;99.90
28244;DHT22;15510;52.512;13.300;2023-11-21T14:11:31;5.30;99.90
28244;DHT22;15510;52.512;13.300;2023-11-21T14:13:56;5.40;99.90
28244;DHT22;15510;52.512;13.300;2023-11-21T14:16:25;5.30;99.90
28244;DHT22;15510;52.512;13.300;2023-11-21T14:18:50;5.30;99.90
28244;DHT22;15510;52.512;13.300;2023-11-21T14:21:27;5.40;99.90
28244;DHT22;15510;52.512;13.300;2023-11-21T14:23:53;5.40;99.90
28244;DHT22;15510;52.512;13.300;2023-11-21T14:26:20;5.30;99.90
28244;DHT22;15510;52.512;13.300;2023-11-21T14:28:50;5.30;99.90
28244;DHT22;15510;52.512;13.300;2023-11-21T14:31:16;5.30;99.90
28244;DHT22;15510;52.512;13.300;2023-11-21T14:33:44;5.30;99.90
28244;DHT22;15510;52.512;13.300;2023-11-21T14:36:16;5.30;99.90
28244;DHT22;15510;52.512;13.300;2023-11-21T14:38:45;5.20;99.90
28244;DHT22;15510;52.512;13.300;2023-11-21T14:41:11;5.20;99.90
28244;DHT22;15510;52.512;13.300;2023-11-21T14:43:38;5.20;99.90
28244;DHT22;15510;52.512;13.300;2023-11-21T14:46:05;5.10;99.90
28244;DHT22;15510;52.512;13.300;2023-11-21T14:48:37;5.10;99.90
28244;DHT22;15510;52.512;13.300;2023-11-21T14:51:17;5.10;99.90
28244;DHT22;15510;52.512;13.300;2023-11-21T14:54:14;4.90;99.90
28244;DHT22;15510;52.512;13.300;2023-11-21T14:56:47;5.00;99.90
28244;DHT22;15510;52.512;13.300;2023-11-21T14:59:13;5.00;99.90
28244;DHT22;15510;52.512;13.300;2023-11-21T15:01:42;4.90;99.90
28244;DHT22;15510;52.512;13.300;2023-11-21T15:04:23;5.00;99.90
28244;DHT22;15510;52.512;13.300;2023-11-21T15:07:03;4.90;99.90
28244;DHT22;15510;52.512;13.300;2023-11-21T15:09:30;4.90;99.90
28244;DHT22;15510;52.512;13.300;2023-11-21T15:12:02;4.90;99.90
28244;DHT22;15510;52.512;13.300;2023-11-21T15:14:50;4.80;99.90
28244;DHT22;15510;52.512;13.300;2023-11-21T15:17:19;4.80;99.90
28244;DHT22;15510;52.512;13.300;2023-11-21T15:19:51;4.90;99.90
28244;DHT22;15510;52.512;13.300;2023-11-21T15:22:19;4.80;99.90
28244;DHT22;15510;52.512;13.300;2023-11-21T15:24:48;4.70;99.90
28244;DHT22;15510;52.512;13.300;2023-11-21T15:27:18;4.80;99.90
28244;DHT22;15510;52.512;13.300;2023-11-21T15:29:44;4.70;99.90
28244;DHT22;15510;52.512;13.300;2023-11-21T15:32:12;4.70;99.90
28244;DHT22;15510;52.512;13.300;2023-11-21T15:34:38;4.70;99.90
28244;DHT22;15510;52.512;13.300;2023-11-21T15:37:07;4.70;99.90
28244;DHT22;15510;52.512;13.300;2023-11-21T15:39:36;4.70;99.90
28244;DHT22;15510;52.512;13.300;2023-11-21T15:42:02;4.60;99.90
28244;DHT22;15510;52.512;13.300;2023-11-21T15:44:29;4.70;99.90
28244;DHT22;15510;52.512;13.300;2023-11-21T15:46:59;4.90;99.90
28244;DHT22;15510;52.512;13.300;2023-11-21T15:49:25;5.00;99.90
28244;DHT22;15510;52.512;13.300;2023-11-21T15:51:53;5.00;99.90
28244;DHT22;15510;52.512;13.300;2023-11-21T15:54:27;4.90;99.90